Time;durP1;ratioP1;P1;durP2;ratioP2;P2;SDS_P1;SDS_P2;PMS_P1;PMS_P2;Temp;Humidity;BMP_temperature;BMP_pressure;BME280_temperature;BME280_humidity;BME280_pressure;Samples;Min_cycle;Max_cycle;Signal;HPM_P1;HPM_P2
2023/03/23 00:00:43;;;;;;;33.67;20.50;;;;;;;-145.18;100.00;60484.78;5072642;28;20035;-66
2023/03/23 00:03:09;;;;;;;32.13;18.23;;;;;;;-145.18;100.00;60484.78;5073996;28;20025;-66
2023/03/23 00:05:36;;;;;;;27.17;15.77;;;;;;;-145.18;100.00;60484.78;5070831;28;20032;-66
2023/03/23 00:08:03;;;;;;;31.87;17.67;;;;;;;-145.18;100.00;60484.78;5073318;28;20028;-66
2023/03/23 00:10:32;;;;;;;29.77;17.83;;;;;;;-145.18;100.00;60484.78;5068221;28;20032;-66
2023/03/23 00:13:02;;;;;;;33.97;19.47;;;;;;;-145.18;100.00;60484.78;5072672;28;20427;-64
2023/03/23 00:15:32;;;;;;;33.23;20.87;;;;;;;-145.18;100.00;60484.78;5080549;28;20032;-65
2023/03/23 00:18:02;;;;;;;34.03;20.23;;;;;;;-145.18;100.00;60484.78;5073075;28;20446;-65
2023/03/23 00:20:29;;;;;;;32.83;17.80;;;;;;;-145.18;100.00;60484.78;5071365;28;20387;-65
2023/03/23 00:22:59;;;;;;;34.97;20.47;;;;;;;-145.18;100.00;60484.78;5074248;28;20033;-65
2023/03/23 00:25:25;;;;;;;29.03;17.90;;;;;;;-145.18;100.00;60484.78;5068070;28;20468;-65
2023/03/23 00:27:51;;;;;;;31.60;19.30;;;;;;;-145.18;100.00;60484.78;5071278;28;20107;-65
2023/03/23 00:30:17;;;;;;;32.47;19.07;;;;;;;-145.18;100.00;60484.78;5063282;28;20101;-65
2023/03/23 00:32:43;;;;;;;32.77;19.50;;;;;;;-145.18;100.00;60484.78;5074004;28;20499;-65
2023/03/23 00:35:11;;;;;;;32.47;19.17;;;;;;;-145.18;100.00;60484.78;5071309;28;20028;-65
2023/03/23 00:37:37;;;;;;;29.23;17.60;;;;;;;-145.18;100.00;60484.78;5064018;28;20589;-65
2023/03/23 00:40:08;;;;;;;31.20;19.53;;;;;;;-145.18;100.00;60484.78;5067101;28;20515;-65
2023/03/23 00:42:37;;;;;;;29.75;18.58;;;;;;;-145.18;100.00;60484.78;5073085;28;20029;-65
2023/03/23 00:45:10;;;;;;;27.53;17.53;;;;;;;-145.18;100.00;60484.78;5064414;28;20032;-65
2023/03/23 00:47:35;;;;;;;29.50;17.87;;;;;;;-145.18;100.00;60484.78;5059251;28;20043;-65
2023/03/23 00:50:02;;;;;;;26.60;16.60;;;;;;;-145.18;100.00;60484.78;5073298;28;20021;-64
2023/03/23 00:52:28;;;;;;;26.17;16.80;;;;;;;-145.18;100.00;60484.78;5073382;28;20144;-64
2023/03/23 00:54:53;;;;;;;27.23;16.77;;;;;;;-145.18;100.00;60484.78;5074061;28;20104;-65
2023/03/23 00:57:19;;;;;;;22.97;11.67;;;;;;;-145.18;100.00;60484.78;5070132;28;20032;-65
2023/03/23 00:59:45;;;;;;;28.10;17.13;;;;;;;-145.18;100.00;60484.78;5060919;28;20032;-64
2023/03/23 01:02:10;;;;;;;23.77;16.07;;;;;;;-145.18;100.00;60484.78;5067791;28;20036;-64
2023/03/23 01:04:38;;;;;;;23.50;16.43;;;;;;;-145.18;100.00;60484.78;5063108;28;20489;-64
2023/03/23 01:07:04;;;;;;;25.67;16.47;;;;;;;-145.18;100.00;60484.78;5068152;28;20025;-64
2023/03/23 01:09:30;;;;;;;25.33;16.80;;;;;;;-145.18;100.00;60484.78;5069170;28;20424;-65
2023/03/23 01:11:55;;;;;;;23.57;14.97;;;;;;;-145.18;100.00;60484.78;5069585;28;20054;-65
2023/03/23 01:14:21;;;;;;;21.47;14.10;;;;;;;-145.18;100.00;60484.78;5074315;28;20071;-64
2023/03/23 01:16:47;;;;;;;23.90;16.70;;;;;;;-145.18;100.00;60484.78;5085014;28;20027;-65
2023/03/23 01:19:13;;;;;;;23.27;14.33;;;;;;;-145.18;100.00;60484.78;5086652;28;20074;-64
2023/03/23 01:21:39;;;;;;;22.73;14.47;;;;;;;-145.18;100.00;60484.78;5068564;28;20101;-64
2023/03/23 01:24:06;;;;;;;24.07;16.27;;;;;;;-145.18;100.00;60484.78;5062506;28;20120;-64
2023/03/23 01:26:31;;;;;;;24.20;15.67;;;;;;;-145.18;100.00;60484.78;5066905;28;20051;-65
2023/03/23 01:28:56;;;;;;;23.10;14.43;;;;;;;-145.18;100.00;60484.78;5064038;28;20025;-64
2023/03/23 01:31:25;;;;;;;22.43;14.43;;;;;;;-145.18;100.00;60484.78;5070008;28;20048;-65
2023/03/23 01:33:52;;;;;;;22.33;14.23;;;;;;;-145.18;100.00;60484.78;5061333;28;20503;-65
2023/03/23 01:36:20;;;;;;;17.97;11.93;;;;;;;-145.18;100.00;60484.78;5067080;28;20029;-65
2023/03/23 01:38:48;;;;;;;22.67;15.07;;;;;;;-145.18;100.00;60484.78;5081121;28;20028;-64
2023/03/23 01:41:15;;;;;;;22.07;16.17;;;;;;;-145.18;100.00;60484.78;5073698;28;20389;-64
2023/03/23 01:44:01;;;;;;;20.73;14.37;;;;;;;-145.18;100.00;60484.78;5062759;28;20028;-64
2023/03/23 01:46:28;;;;;;;21.70;15.03;;;;;;;-145.18;100.00;60484.78;5065346;28;20062;-65
2023/03/23 01:48:57;;;;;;;20.97;14.33;;;;;;;-145.18;100.00;60484.78;5064713;28;20060;-64
2023/03/23 01:51:26;;;;;;;19.37;13.30;;;;;;;-145.18;100.00;60484.78;5055164;28;20497;-64
2023/03/23 01:53:58;;;;;;;22.93;14.70;;;;;;;-145.18;100.00;60484.78;5057439;28;20089;-64
2023/03/23 01:56:29;;;;;;;19.15;13.93;;;;;;;-145.18;100.00;60484.78;5074801;28;20128;-65
2023/03/23 01:58:56;;;;;;;22.77;13.50;;;;;;;-145.18;100.00;60484.78;5072991;28;20052;-64
2023/03/23 02:02:00;;;;;;;20.17;13.40;;;;;;;-145.18;100.00;60484.78;5072184;28;20530;-66
2023/03/23 02:04:27;;;;;;;20.87;13.47;;;;;;;-145.18;100.00;60484.78;5091838;22;20044;-60
2023/03/23 02:06:54;;;;;;;23.77;14.90;;;;;;;-145.18;100.00;60484.78;5095914;28;20475;-60
2023/03/23 02:09:21;;;;;;;17.30;11.17;;;;;;;-145.18;100.00;60484.78;5092696;28;20044;-60
2023/03/23 02:11:47;;;;;;;17.73;13.50;;;;;;;-145.18;100.00;60484.78;5093955;28;20107;-60
2023/03/23 02:14:14;;;;;;;19.87;13.00;;;;;;;-145.18;100.00;60484.78;5093286;28;20395;-61
2023/03/23 02:17:43;;;;;;;18.07;11.60;;;;;;;-145.18;100.00;60484.78;5094554;28;20028;-60
2023/03/23 02:21:10;;;;;;;20.27;13.40;;;;;;;-145.18;100.00;60484.78;5003451;28;20065;-60
2023/03/23 02:24:16;;;;;;;21.80;13.80;;;;;;;-145.18;100.00;60484.78;4997458;28;20048;-60
2023/03/23 02:26:58;;;;;;;20.27;14.37;;;;;;;-145.18;100.00;60484.78;4941906;28;20039;-60
2023/03/23 02:30:31;;;;;;;20.67;13.50;;;;;;;-145.18;100.00;60484.78;4953096;28;20039;-60
2023/03/23 02:33:33;;;;;;;17.43;11.90;;;;;;;-145.18;100.00;60484.78;4862362;29;20053;-60
2023/03/23 02:36:24;;;;;;;18.60;13.52;;;;;;;-145.18;100.00;60484.78;4896693;29;20075;-60
2023/03/23 02:39:05;;;;;;;21.85;14.13;;;;;;;-145.18;100.00;60484.78;4884480;29;20033;-60
2023/03/23 02:41:39;;;;;;;20.02;12.77;;;;;;;-145.18;100.00;60484.78;4896433;29;20115;-61
2023/03/23 02:44:07;;;;;;;18.77;12.07;;;;;;;-145.18;100.00;60484.78;4896158;29;20036;-60
2023/03/23 02:46:35;;;;;;;20.73;13.73;;;;;;;-145.18;100.00;60484.78;4896279;29;20518;-61
2023/03/23 02:49:03;;;;;;;20.40;13.57;;;;;;;-145.18;100.00;60484.78;4902749;29;20039;-61
2023/03/23 02:51:30;;;;;;;19.17;11.83;;;;;;;-145.18;100.00;60484.78;4915440;29;20040;-60
2023/03/23 02:53:57;;;;;;;18.87;11.30;;;;;;;-145.18;100.00;60484.78;4909821;29;20484;-60
2023/03/23 02:56:27;;;;;;;15.37;10.33;;;;;;;-145.18;100.00;60484.78;4913841;29;20566;-60
2023/03/23 02:58:53;;;;;;;17.83;11.53;;;;;;;-145.18;100.00;60484.78;4900064;29;20029;-60
2023/03/23 03:01:51;;;;;;;19.57;12.77;;;;;;;-145.18;100.00;60484.78;5026107;28;20160;-61
2023/03/23 03:04:21;;;;;;;17.03;10.77;;;;;;;-145.18;100.00;60484.78;5092993;28;20403;-61
2023/03/23 03:07:25;;;;;;;19.53;10.57;;;;;;;-145.18;100.00;60484.78;5113506;28;20476;-61
2023/03/23 03:10:04;;;;;;;18.43;12.23;;;;;;;-145.18;100.00;60484.78;5029279;28;20040;-61
2023/03/23 03:12:39;;;;;;;16.97;11.27;;;;;;;-145.18;100.00;60484.78;5019686;28;20033;-61
2023/03/23 03:15:37;;;;;;;18.73;10.63;;;;;;;-145.18;100.00;60484.78;5029642;28;20069;-61
2023/03/23 03:18:22;;;;;;;12.87;7.83;;;;;;;-145.18;100.00;60484.78;4952326;28;20047;-62
2023/03/23 03:20:56;;;;;;;17.53;10.50;;;;;;;-145.18;100.00;60484.78;4950898;29;20042;-62
2023/03/23 03:23:24;;;;;;;14.87;8.47;;;;;;;-145.18;100.00;60484.78;4951702;29;20042;-61
2023/03/23 03:25:50;;;;;;;12.80;8.30;;;;;;;-145.18;100.00;60484.78;4952965;29;20177;-61
2023/03/23 03:28:21;;;;;;;11.80;7.87;;;;;;;-145.18;100.00;60484.78;4951845;29;20039;-61
2023/03/23 03:30:51;;;;;;;13.03;7.00;;;;;;;-145.18;100.00;60484.78;4948157;29;20027;-62
2023/03/23 03:33:20;;;;;;;14.43;8.60;;;;;;;-145.18;100.00;60484.78;4953060;29;20260;-61
2023/03/23 03:35:46;;;;;;;13.77;7.43;;;;;;;-145.18;100.00;60484.78;4952405;29;20114;-61
2023/03/23 03:38:12;;;;;;;12.90;6.43;;;;;;;-145.18;100.00;60484.78;4952478;29;20031;-62
2023/03/23 03:40:38;;;;;;;13.63;7.93;;;;;;;-145.18;100.00;60484.78;4952096;29;20039;-60
2023/03/23 03:43:06;;;;;;;15.80;8.20;;;;;;;-145.18;100.00;60484.78;4952821;29;20500;-61
2023/03/23 03:45:32;;;;;;;13.93;7.83;;;;;;;-145.18;100.00;60484.78;4962773;28;20041;-61
2023/03/23 03:47:57;;;;;;;13.43;7.90;;;;;;;-145.18;100.00;60484.78;5030714;28;20116;-61
2023/03/23 03:50:23;;;;;;;13.60;8.13;;;;;;;-145.18;100.00;60484.78;5030079;28;20390;-61
2023/03/23 03:52:49;;;;;;;12.40;6.20;;;;;;;-145.18;100.00;60484.78;5030815;28;20034;-61
2023/03/23 03:55:16;;;;;;;11.07;6.07;;;;;;;-145.18;100.00;60484.78;5072717;28;20542;-61
2023/03/23 03:57:42;;;;;;;13.70;6.87;;;;;;;-145.18;100.00;60484.78;5110913;28;20512;-67
2023/03/23 04:00:14;;;;;;;12.83;7.20;;;;;;;-145.18;100.00;60484.78;5112512;28;20031;-67
2023/03/23 04:02:47;;;;;;;11.83;7.23;;;;;;;-145.18;100.00;60484.78;5109990;28;20470;-67
2023/03/23 04:05:13;;;;;;;12.90;6.93;;;;;;;-145.18;100.00;60484.78;5113054;28;20040;-66
2023/03/23 04:07:39;;;;;;;11.20;6.53;;;;;;;-145.18;100.00;60484.78;5113384;28;20024;-66
2023/03/23 04:10:10;;;;;;;12.30;5.67;;;;;;;-145.18;100.00;60484.78;5111665;28;20034;-67
2023/03/23 04:12:36;;;;;;;8.70;4.55;;;;;;;-145.18;100.00;60484.78;5113282;28;20092;-67
2023/03/23 04:15:03;;;;;;;10.63;5.83;;;;;;;-145.18;100.00;60484.78;5112071;28;20032;-67
2023/03/23 04:17:28;;;;;;;9.20;5.93;;;;;;;-145.18;100.00;60484.78;5113343;28;20115;-66
2023/03/23 04:19:56;;;;;;;10.57;5.80;;;;;;;-145.18;100.00;60484.78;5112303;28;20490;-66
2023/03/23 04:22:24;;;;;;;9.17;5.00;;;;;;;-145.18;100.00;60484.78;5112971;28;20035;-66
2023/03/23 04:24:51;;;;;;;10.33;5.87;;;;;;;-145.18;100.00;60484.78;5113185;28;20026;-66
2023/03/23 04:27:17;;;;;;;14.43;6.40;;;;;;;-145.18;100.00;60484.78;5112675;28;20028;-66
2023/03/23 04:29:48;;;;;;;9.73;5.60;;;;;;;-145.18;100.00;60484.78;5112317;28;20020;-66
2023/03/23 04:32:14;;;;;;;10.65;5.25;;;;;;;-145.18;100.00;60484.78;5114911;28;20035;-66
2023/03/23 04:34:40;;;;;;;11.10;5.87;;;;;;;-145.18;100.00;60484.78;5116891;28;20390;-66
2023/03/23 04:37:06;;;;;;;7.87;4.87;;;;;;;-145.18;100.00;60484.78;5115774;28;20027;-66
2023/03/23 04:39:33;;;;;;;10.20;5.33;;;;;;;-145.18;100.00;60484.78;5115584;28;20030;-66
2023/03/23 04:42:00;;;;;;;8.70;4.83;;;;;;;-145.18;100.00;60484.78;5115988;28;20103;-66
2023/03/23 04:44:27;;;;;;;7.87;4.20;;;;;;;-145.18;100.00;60484.78;5116136;28;20417;-66
2023/03/23 04:46:53;;;;;;;12.23;5.67;;;;;;;-145.18;100.00;60484.78;5114703;28;20047;-66
2023/03/23 04:49:21;;;;;;;7.93;4.83;;;;;;;-145.18;100.00;60484.78;5116273;28;20028;-66
2023/03/23 04:51:48;;;;;;;10.20;5.40;;;;;;;-145.18;100.00;60484.78;5116732;28;20574;-66
2023/03/23 04:54:14;;;;;;;10.40;5.47;;;;;;;-145.18;100.00;60484.78;5116299;28;20080;-66
2023/03/23 04:56:41;;;;;;;11.50;6.23;;;;;;;-145.18;100.00;60484.78;5114873;28;20033;-66
2023/03/23 04:59:06;;;;;;;8.03;4.70;;;;;;;-145.18;100.00;60484.78;5116733;28;20028;-66
2023/03/23 05:01:33;;;;;;;8.83;5.17;;;;;;;-145.18;100.00;60484.78;5114800;28;20531;-66
2023/03/23 05:04:00;;;;;;;9.87;5.53;;;;;;;-145.18;100.00;60484.78;5115701;28;20055;-65
2023/03/23 05:06:25;;;;;;;8.70;5.50;;;;;;;-145.18;100.00;60484.78;5115199;28;20077;-65
2023/03/23 05:08:51;;;;;;;9.90;5.40;;;;;;;-145.18;100.00;60484.78;5116405;28;20023;-65
2023/03/23 05:11:16;;;;;;;8.93;5.80;;;;;;;-145.18;100.00;60484.78;5114136;28;20027;-65
2023/03/23 05:13:44;;;;;;;9.10;4.97;;;;;;;-145.18;100.00;60484.78;5111639;28;20031;-65
2023/03/23 05:16:09;;;;;;;9.10;5.50;;;;;;;-145.18;100.00;60484.78;5115062;28;20080;-65
2023/03/23 05:18:35;;;;;;;10.73;5.70;;;;;;;-145.18;100.00;60484.78;5116096;28;20424;-65
2023/03/23 05:21:02;;;;;;;8.73;5.13;;;;;;;-145.18;100.00;60484.78;5116056;28;20028;-65
2023/03/23 05:23:30;;;;;;;8.40;4.60;;;;;;;-145.18;100.00;60484.78;5113702;28;20024;-66
2023/03/23 05:26:00;;;;;;;9.87;5.47;;;;;;;-145.18;100.00;60484.78;5114177;28;20119;-65
2023/03/23 05:28:26;;;;;;;10.30;5.60;;;;;;;-145.18;100.00;60484.78;5114465;28;20028;-65
2023/03/23 05:30:53;;;;;;;9.10;5.70;;;;;;;-145.18;100.00;60484.78;5114366;28;20028;-65
2023/03/23 05:33:19;;;;;;;8.40;5.00;;;;;;;-145.18;100.00;60484.78;5112364;28;20407;-65
2023/03/23 05:35:47;;;;;;;9.33;5.10;;;;;;;-145.18;100.00;60484.78;5126216;27;20031;-66
2023/03/23 05:38:14;;;;;;;7.63;4.77;;;;;;;-145.18;100.00;60484.78;5115942;27;20386;-66
2023/03/23 05:40:41;;;;;;;8.27;4.57;;;;;;;-145.18;100.00;60484.78;5115394;28;20023;-65
2023/03/23 05:43:07;;;;;;;8.13;4.93;;;;;;;-145.18;100.00;60484.78;5115474;28;20092;-65
2023/03/23 05:45:33;;;;;;;8.70;4.90;;;;;;;-145.18;100.00;60484.78;5112804;28;20019;-65
2023/03/23 05:47:59;;;;;;;8.73;4.80;;;;;;;-145.18;100.00;60484.78;5115356;28;20394;-66
2023/03/23 05:50:25;;;;;;;10.37;4.80;;;;;;;-145.18;100.00;60484.78;5114932;28;20102;-66
2023/03/23 05:52:51;;;;;;;9.17;5.10;;;;;;;-145.18;100.00;60484.78;5115264;28;20038;-65
2023/03/23 05:55:16;;;;;;;8.30;4.90;;;;;;;-145.18;100.00;60484.78;5113248;28;20441;-65
2023/03/23 05:57:42;;;;;;;7.17;4.23;;;;;;;-145.18;100.00;60484.78;5113808;28;20015;-65
2023/03/23 06:00:14;;;;;;;9.27;4.80;;;;;;;-145.18;100.00;60484.78;5114293;28;20032;-65
2023/03/23 06:02:43;;;;;;;8.50;5.72;;;;;;;-145.18;100.00;60484.78;5112679;28;20027;-66
2023/03/23 06:05:09;;;;;;;8.27;5.57;;;;;;;-145.18;100.00;60484.78;5114804;28;20036;-68
2023/03/23 06:07:35;;;;;;;11.03;7.17;;;;;;;-145.18;100.00;60484.78;5114089;28;20024;-67
2023/03/23 06:10:00;;;;;;;12.13;7.40;;;;;;;-145.18;100.00;60484.78;5114341;28;20035;-67
2023/03/23 06:12:26;;;;;;;12.37;7.47;;;;;;;-145.18;100.00;60484.78;5113933;28;20615;-68
2023/03/23 06:14:52;;;;;;;12.67;7.73;;;;;;;-145.18;100.00;60484.78;5115042;28;20483;-68
2023/03/23 06:17:17;;;;;;;11.97;7.93;;;;;;;-145.18;100.00;60484.78;5114054;28;20036;-68
2023/03/23 06:19:45;;;;;;;12.53;8.23;;;;;;;-145.18;100.00;60484.78;5114738;28;20031;-68
2023/03/23 06:22:11;;;;;;;11.13;7.87;;;;;;;-145.18;100.00;60484.78;5094343;28;20109;-68
2023/03/23 06:24:36;;;;;;;11.03;6.93;;;;;;;-145.18;100.00;60484.78;5112406;28;20515;-68
2023/03/23 06:27:02;;;;;;;12.03;7.93;;;;;;;-145.18;100.00;60484.78;5114586;28;20036;-67
2023/03/23 06:29:28;;;;;;;12.67;8.00;;;;;;;-145.18;100.00;60484.78;5114659;28;20027;-67
2023/03/23 06:32:00;;;;;;;12.50;7.47;;;;;;;-145.18;100.00;60484.78;5113354;28;20040;-67
2023/03/23 06:34:26;;;;;;;10.90;6.43;;;;;;;-145.18;100.00;60484.78;5114632;28;20052;-68
2023/03/23 06:36:52;;;;;;;11.97;6.90;;;;;;;-145.18;100.00;60484.78;5113087;28;20116;-67
2023/03/23 06:39:17;;;;;;;10.07;6.53;;;;;;;-145.18;100.00;60484.78;5114439;28;20043;-68
2023/03/23 06:41:43;;;;;;;12.17;6.90;;;;;;;-145.18;100.00;60484.78;5114524;27;20020;-67
2023/03/23 06:44:13;;;;;;;12.67;6.57;;;;;;;-145.18;100.00;60484.78;5113907;28;20122;-67
2023/03/23 06:46:38;;;;;;;13.73;7.27;;;;;;;-145.18;100.00;60484.78;5110339;28;20093;-67
2023/03/23 06:49:04;;;;;;;10.47;4.67;;;;;;;-145.18;100.00;60484.78;5112653;28;20031;-68
2023/03/23 06:51:30;;;;;;;11.23;4.97;;;;;;;-145.18;100.00;60484.78;5114088;28;20035;-67
2023/03/23 06:53:56;;;;;;;8.40;5.07;;;;;;;-145.18;100.00;60484.78;5113659;28;20073;-67
2023/03/23 06:56:22;;;;;;;6.50;4.17;;;;;;;-145.18;100.00;60484.78;5106526;27;20100;-67
2023/03/23 06:58:48;;;;;;;7.63;4.10;;;;;;;-145.18;100.00;60484.78;5110057;28;20032;-67
2023/03/23 07:01:14;;;;;;;6.80;3.93;;;;;;;-145.18;100.00;60484.78;5112188;27;20047;-68
2023/03/23 07:03:40;;;;;;;14.83;4.77;;;;;;;-145.18;100.00;60484.78;5113301;27;20043;-67
2023/03/23 07:06:07;;;;;;;8.07;4.57;;;;;;;-145.18;100.00;60484.78;5110187;27;20027;-67
2023/03/23 07:08:33;;;;;;;7.50;4.50;;;;;;;-145.18;100.00;60484.78;5112518;27;20058;-67
2023/03/23 07:10:58;;;;;;;6.83;3.73;;;;;;;-145.18;100.00;60484.78;5110765;28;20055;-67
2023/03/23 07:13:25;;;;;;;8.73;4.30;;;;;;;-145.18;100.00;60484.78;5113930;28;20106;-68
2023/03/23 07:15:50;;;;;;;6.50;3.17;;;;;;;-145.18;100.00;60484.78;5113802;28;20439;-68
2023/03/23 07:18:16;;;;;;;7.93;3.67;;;;;;;-145.18;100.00;60484.78;5112504;28;20067;-68
2023/03/23 07:20:42;;;;;;;6.37;3.03;;;;;;;-145.18;100.00;60484.78;5108934;28;20537;-68
2023/03/23 07:23:08;;;;;;;7.43;3.08;;;;;;;-145.18;100.00;60484.78;5111510;28;20027;-67
2023/03/23 07:25:35;;;;;;;7.75;3.63;;;;;;;-145.18;100.00;60484.78;5114032;28;20479;-67
2023/03/23 07:28:02;;;;;;;7.05;2.25;;;;;;;-145.18;100.00;60484.78;5112971;28;20160;-68
2023/03/23 07:30:29;;;;;;;3.97;0.80;;;;;;;-145.18;100.00;60484.78;5113659;28;20034;-67
2023/03/23 07:32:55;;;;;;;2.17;0.80;;;;;;;-145.18;100.00;60484.78;5112481;28;20448;-68
2023/03/23 07:35:20;;;;;;;5.10;1.43;;;;;;;-145.18;100.00;60484.78;5113547;28;20063;-68
2023/03/23 07:37:48;;;;;;;2.33;1.00;;;;;;;-145.18;100.00;60484.78;5112438;28;20051;-67
2023/03/23 07:40:15;;;;;;;3.50;0.83;;;;;;;-145.18;100.00;60484.78;5113657;28;20034;-67
2023/03/23 07:42:42;;;;;;;3.03;0.90;;;;;;;-145.18;100.00;60484.78;5113629;28;20107;-68
2023/03/23 07:45:08;;;;;;;3.20;1.37;;;;;;;-145.18;100.00;60484.78;5113440;28;20059;-67
2023/03/23 07:47:34;;;;;;;5.23;1.40;;;;;;;-145.18;100.00;60484.78;5112149;28;20031;-66
2023/03/23 07:50:00;;;;;;;2.87;0.83;;;;;;;-145.18;100.00;60484.78;5113307;28;20042;-68
2023/03/23 07:52:25;;;;;;;7.27;1.60;;;;;;;-145.18;100.00;60484.78;5110970;28;20024;-68
2023/03/23 07:54:50;;;;;;;3.73;1.57;;;;;;;-145.18;100.00;60484.78;5092983;28;20059;-67
2023/03/23 07:57:16;;;;;;;4.93;1.50;;;;;;;-145.18;100.00;60484.78;5092844;28;20039;-68
2023/03/23 07:59:42;;;;;;;7.10;1.70;;;;;;;-145.18;100.00;60484.78;5113519;28;20486;-68
2023/03/23 08:02:09;;;;;;;5.67;1.83;;;;;;;-145.18;100.00;60484.78;5113237;28;20063;-66
2023/03/23 08:04:37;;;;;;;4.60;1.70;;;;;;;-145.18;100.00;60484.78;5112095;28;20059;-67
2023/03/23 08:07:04;;;;;;;6.03;1.70;;;;;;;-145.18;100.00;60484.78;5114872;28;20084;-67
2023/03/23 08:09:30;;;;;;;8.37;1.70;;;;;;;-145.18;100.00;60484.78;5116926;28;20491;-67
2023/03/23 08:11:55;;;;;;;8.37;2.17;;;;;;;-145.18;100.00;60484.78;5117428;28;20035;-68
2023/03/23 08:14:21;;;;;;;6.63;1.30;;;;;;;-145.18;100.00;60484.78;5117397;28;20487;-70
2023/03/23 08:16:48;;;;;;;6.57;1.60;;;;;;;-145.18;100.00;60484.78;5116204;28;20080;-71
2023/03/23 08:19:14;;;;;;;6.77;2.13;;;;;;;-145.18;100.00;60484.78;5116087;28;20055;-71
2023/03/23 08:21:39;;;;;;;3.60;1.23;;;;;;;-145.18;100.00;60484.78;5117122;28;20028;-73
2023/03/23 08:24:06;;;;;;;3.17;1.30;;;;;;;-145.18;100.00;60484.78;5115235;28;20027;-72
2023/03/23 08:26:31;;;;;;;10.43;2.53;;;;;;;-145.18;100.00;60484.78;5117175;28;20471;-71
2023/03/23 08:28:57;;;;;;;5.30;1.57;;;;;;;-145.18;100.00;60484.78;5115622;28;20088;-71
2023/03/23 08:31:23;;;;;;;8.00;1.97;;;;;;;-145.18;100.00;60484.78;5116456;28;20042;-70
2023/03/23 08:33:49;;;;;;;5.13;1.57;;;;;;;-145.18;100.00;60484.78;5115903;28;20544;-70
2023/03/23 08:36:15;;;;;;;7.20;1.90;;;;;;;-145.18;100.00;60484.78;5116840;28;20032;-71
2023/03/23 08:38:40;;;;;;;8.83;1.80;;;;;;;-145.18;100.00;60484.78;5115672;28;20020;-70
2023/03/23 08:41:07;;;;;;;6.47;1.87;;;;;;;-145.18;100.00;60484.78;5115351;28;20182;-71
2023/03/23 08:43:34;;;;;;;9.27;2.17;;;;;;;-145.18;100.00;60484.78;5116712;28;20031;-74
2023/03/23 08:46:00;;;;;;;7.03;1.80;;;;;;;-145.18;100.00;60484.78;5116800;28;20032;-71
2023/03/23 08:48:26;;;;;;;5.07;1.30;;;;;;;-145.18;100.00;60484.78;5115799;28;20150;-74
2023/03/23 08:50:51;;;;;;;6.03;1.50;;;;;;;-145.18;100.00;60484.78;5116621;28;20063;-71
2023/03/23 08:53:18;;;;;;;7.23;1.90;;;;;;;-145.18;100.00;60484.78;5116527;28;20058;-72
2023/03/23 08:55:44;;;;;;;7.23;1.90;;;;;;;-145.18;100.00;60484.78;5116474;28;20034;-73
2023/03/23 08:58:10;;;;;;;8.50;2.03;;;;;;;-145.18;100.00;60484.78;5115385;28;20055;-73
2023/03/23 09:00:36;;;;;;;11.70;2.10;;;;;;;-145.18;100.00;60484.78;5116416;28;20058;-72
2023/03/23 09:03:02;;;;;;;8.50;1.90;;;;;;;-145.18;100.00;60484.78;5115780;28;20023;-74
2023/03/23 09:05:28;;;;;;;12.63;2.30;;;;;;;-145.18;100.00;60484.78;5114378;28;20042;-71
2023/03/23 09:08:00;;;;;;;7.60;1.93;;;;;;;-145.18;100.00;60484.78;5114126;28;20030;-70
2023/03/23 09:10:30;;;;;;;10.35;2.70;;;;;;;-145.18;100.00;60484.78;5116271;28;20035;-69
2023/03/23 09:12:56;;;;;;;16.70;2.50;;;;;;;-145.18;100.00;60484.78;5116179;28;20035;-70
2023/03/23 09:15:22;;;;;;;8.27;2.80;;;;;;;-145.18;100.00;60484.78;5113116;28;20096;-70
2023/03/23 09:17:50;;;;;;;9.20;2.50;;;;;;;-145.18;100.00;60484.78;5112684;28;20080;-71
2023/03/23 09:20:20;;;;;;;9.27;2.23;;;;;;;-145.18;100.00;60484.78;5098125;28;20464;-71
2023/03/23 09:22:48;;;;;;;10.93;2.57;;;;;;;-145.18;100.00;60484.78;5095832;28;20024;-70
2023/03/23 09:25:18;;;;;;;10.67;2.17;;;;;;;-145.18;100.00;60484.78;5096868;28;20016;-71
2023/03/23 09:27:46;;;;;;;8.77;2.07;;;;;;;-145.18;100.00;60484.78;5095748;28;20484;-71
2023/03/23 09:30:14;;;;;;;14.17;2.70;;;;;;;-145.18;100.00;60484.78;5109230;27;20032;-68
2023/03/23 09:32:42;;;;;;;10.53;2.63;;;;;;;-145.18;100.00;60484.78;5115214;27;20024;-69
2023/03/23 09:35:09;;;;;;;10.17;2.40;;;;;;;-145.18;100.00;60484.78;5115777;28;20091;-69
2023/03/23 09:37:35;;;;;;;14.03;2.57;;;;;;;-145.18;100.00;60484.78;5115753;28;20023;-68
2023/03/23 09:40:05;;;;;;;9.60;2.50;;;;;;;-145.18;100.00;60484.78;5114600;28;20023;-69
2023/03/23 09:42:56;;;;;;;6.93;2.10;;;;;;;-145.18;100.00;60484.78;5115438;28;20027;-71
2023/03/23 09:46:30;;;;;;;9.87;1.93;;;;;;;-145.18;100.00;60484.78;5115679;28;20538;-70
2023/03/23 09:48:59;;;;;;;10.60;2.50;;;;;;;-145.18;100.00;60484.78;4953964;28;20070;-71
2023/03/23 09:51:50;;;;;;;7.83;1.50;;;;;;;-145.18;100.00;60484.78;4954682;29;20122;-72
2023/03/23 09:54:52;;;;;;;11.00;1.93;;;;;;;-145.18;100.00;60484.78;4920427;29;20499;-70
2023/03/23 09:57:50;;;;;;;;;;;;;;;-145.18;100.00;60484.78;4860644;29;20447;-70
2023/03/23 10:00:25;;;;;;;9.47;2.50;;;;;;;-145.18;100.00;60484.78;4829723;29;20396;-71
2023/03/23 10:03:15;;;;;;;8.53;2.20;;;;;;;-145.18;100.00;60484.78;4846381;29;20554;-71
2023/03/23 10:05:45;;;;;;;13.67;2.83;;;;;;;-145.18;100.00;60484.78;4859708;29;20129;-70
2023/03/23 10:08:18;;;;;;;8.87;2.57;;;;;;;-145.18;100.00;60484.78;4859267;29;20116;-70
2023/03/23 10:11:02;;;;;;;11.40;2.93;;;;;;;-145.18;100.00;60484.78;4859335;29;20114;-70
2023/03/23 10:14:07;;;;;;;9.90;2.63;;;;;;;-145.18;100.00;60484.78;4859296;29;20041;-70
2023/03/23 10:16:37;;;;;;;8.97;2.70;;;;;;;-145.18;100.00;60484.78;4823128;29;20141;-70
2023/03/23 10:19:27;;;;;;;9.37;3.03;;;;;;;-145.18;100.00;60484.78;4822385;29;20578;-71
2023/03/23 10:21:59;;;;;;;12.43;2.63;;;;;;;-145.18;100.00;60484.78;4826121;29;20072;-70
2023/03/23 10:24:36;;;;;;;9.33;2.60;;;;;;;-145.18;100.00;60484.78;4911552;29;20412;-70
2023/03/23 10:27:38;;;;;;;10.73;2.77;;;;;;;-145.18;100.00;60484.78;4935429;29;20591;-70
2023/03/23 10:30:21;;;;;;;10.77;2.90;;;;;;;-145.18;100.00;60484.78;4935062;28;20040;-70
2023/03/23 10:33:55;;;;;;;13.73;3.23;;;;;;;-145.18;100.00;60484.78;5032589;28;20575;-70
2023/03/23 10:36:29;;;;;;;8.47;2.80;;;;;;;-145.18;100.00;60484.78;5011860;28;20594;-70
2023/03/23 10:39:12;;;;;;;9.93;3.40;;;;;;;-145.18;100.00;60484.78;4995720;28;20127;-70
2023/03/23 10:41:37;;;;;;;9.40;3.23;;;;;;;-145.18;100.00;60484.78;5012035;28;20053;-70
2023/03/23 10:44:12;;;;;;;11.17;3.00;;;;;;;-145.18;100.00;60484.78;5011366;28;20046;-70
2023/03/23 10:46:53;;;;;;;8.10;2.70;;;;;;;-145.18;100.00;60484.78;5011927;28;20529;-70
2023/03/23 10:49:25;;;;;;;10.35;3.38;;;;;;;-145.18;100.00;60484.78;5011207;28;20094;-70
2023/03/23 10:52:24;;;;;;;10.20;3.07;;;;;;;-145.18;100.00;60484.78;5028740;28;20131;-69
2023/03/23 10:55:23;;;;;;;8.93;3.47;;;;;;;-145.18;100.00;60484.78;5047934;28;20090;-68
2023/03/23 10:58:28;;;;;;;8.60;2.83;;;;;;;-145.18;100.00;60484.78;4980557;28;20105;-68
2023/03/23 11:00:54;;;;;;;8.10;2.40;;;;;;;-145.18;100.00;60484.78;4984960;28;20058;-68
2023/03/23 11:03:28;;;;;;;8.80;3.03;;;;;;;-145.18;100.00;60484.78;4991464;28;20042;-68
2023/03/23 11:05:58;;;;;;;6.87;2.80;;;;;;;-145.18;100.00;60484.78;5004248;28;20402;-68
2023/03/23 11:08:31;;;;;;;8.97;3.43;;;;;;;-145.18;100.00;60484.78;5049397;28;20508;-68
2023/03/23 11:11:07;;;;;;;8.83;3.80;;;;;;;-145.18;100.00;60484.78;5051268;28;20041;-70
2023/03/23 11:13:32;;;;;;;8.13;3.17;;;;;;;-145.18;100.00;60484.78;5050370;28;20126;-70
2023/03/23 11:15:59;;;;;;;7.73;3.50;;;;;;;-145.18;100.00;60484.78;5051001;28;20056;-70
2023/03/23 11:18:46;;;;;;;8.13;3.23;;;;;;;-145.18;100.00;60484.78;5049204;28;20400;-70